Time;durP1;ratioP1;P1;durP2;ratioP2;P2;SDS_P1;SDS_P2;PMS_P1;PMS_P2;Temp;Humidity;BMP_temperature;BMP_pressure;BME280_temperature;BME280_humidity;BME280_pressure;Samples;Min_cycle;Max_cycle;Signal;HPM_P1;HPM_P2
2021/11/07 00:02:23;;;;;;;9.25;6.80;;;1.10;99.90;;;;;;5047242;28;20274;-66
2021/11/07 00:04:59;;;;;;;7.57;6.28;;;1.10;99.90;;;;;;5047668;28;20228;-65
2021/11/07 00:07:30;;;;;;;10.25;7.25;;;1.10;99.90;;;;;;5047220;28;20232;-65
2021/11/07 00:10:03;;;;;;;9.48;6.75;;;1.10;99.90;;;;;;5047459;28;20231;-65
2021/11/07 00:12:32;;;;;;;8.13;6.38;;;1.10;99.90;;;;;;5047881;28;20201;-65
2021/11/07 00:14:59;;;;;;;7.40;5.80;;;1.10;99.90;;;;;;5047389;28;20208;-65
2021/11/07 00:17:29;;;;;;;10.52;6.78;;;1.20;99.90;;;;;;5047223;28;20268;-65
2021/11/07 00:20:00;;;;;;;7.75;5.75;;;1.20;99.90;;;;;;5047554;28;20303;-65
2021/11/07 00:22:34;;;;;;;9.60;6.35;;;1.20;99.90;;;;;;5048025;28;20236;-65
2021/11/07 00:25:13;;;;;;;7.82;5.88;;;1.20;99.90;;;;;;5047248;28;20274;-65
2021/11/07 00:27:45;;;;;;;9.85;6.65;;;1.20;99.90;;;;;;5047063;28;20217;-65
2021/11/07 00:30:16;;;;;;;8.57;5.82;;;1.20;99.90;;;;;;5047905;28;20211;-65
2021/11/07 00:32:52;;;;;;;7.95;6.10;;;1.20;99.90;;;;;;5047562;28;20741;-65
2021/11/07 00:38:17;;;;;;;6.68;5.50;;;1.20;99.90;;;;;;5005689;28;20191;-65
2021/11/07 00:40:49;;;;;;;6.82;5.60;;;1.20;99.90;;;;;;5038511;28;20236;-65
2021/11/07 00:43:22;;;;;;;8.80;6.03;;;1.20;99.90;;;;;;5048654;28;20217;-65
2021/11/07 00:46:01;;;;;;;9.00;6.28;;;1.20;99.90;;;;;;5047203;28;20225;-65
2021/11/07 00:48:33;;;;;;;6.97;5.78;;;1.20;99.90;;;;;;5048311;28;20209;-65
2021/11/07 00:51:08;;;;;;;6.90;5.45;;;1.10;99.90;;;;;;5048171;28;20304;-65
2021/11/07 00:56:31;;;;;;;7.05;5.40;;;1.20;99.90;;;;;;5047730;28;20243;-65
2021/11/07 00:59:10;;;;;;;6.80;5.50;;;1.20;99.90;;;;;;5047885;28;20890;-65
2021/11/07 01:01:41;;;;;;;6.90;5.68;;;1.20;99.90;;;;;;5048098;28;20201;-65
2021/11/07 01:04:12;;;;;;;7.82;5.50;;;1.20;99.90;;;;;;5047580;28;20236;-65
2021/11/07 01:06:41;;;;;;;8.48;6.35;;;1.20;99.90;;;;;;5047642;28;20319;-65
2021/11/07 01:09:08;;;;;;;6.57;5.03;;;1.10;99.90;;;;;;5045886;28;20219;-65
2021/11/07 01:11:36;;;;;;;7.63;6.18;;;1.10;99.90;;;;;;5028113;28;20202;-65
2021/11/07 01:14:03;;;;;;;8.50;6.43;;;1.20;99.90;;;;;;5027991;28;20210;-65
2021/11/07 01:16:30;;;;;;;8.30;6.50;;;1.10;99.90;;;;;;5027175;28;20873;-65
2021/11/07 01:18:57;;;;;;;9.63;7.07;;;1.20;99.90;;;;;;5027677;28;20209;-65
2021/11/07 01:21:27;;;;;;;8.10;6.53;;;1.20;99.90;;;;;;5027823;28;20384;-65
2021/11/07 01:23:58;;;;;;;9.95;6.47;;;1.20;99.90;;;;;;5027521;28;20205;-65
2021/11/07 01:26:29;;;;;;;9.10;7.22;;;1.30;99.90;;;;;;5027362;28;20230;-65
2021/11/07 01:29:00;;;;;;;9.63;7.03;;;1.20;99.90;;;;;;5027380;28;20769;-65
2021/11/07 01:31:28;;;;;;;8.07;6.30;;;1.20;99.90;;;;;;5027972;28;20332;-65
2021/11/07 01:33:58;;;;;;;9.82;7.60;;;1.20;99.90;;;;;;5027130;28;20213;-65
2021/11/07 01:36:36;;;;;;;9.52;6.80;;;1.20;99.90;;;;;;5027399;28;20233;-65
2021/11/07 01:39:10;;;;;;;9.80;7.00;;;1.20;99.90;;;;;;5027683;28;20681;-65
2021/11/07 01:41:44;;;;;;;8.98;6.90;;;1.30;99.90;;;;;;5026379;28;20206;-65
2021/11/07 01:44:12;;;;;;;10.35;8.20;;;1.30;99.90;;;;;;5021786;28;20226;-65
2021/11/07 01:46:41;;;;;;;9.73;8.07;;;1.30;99.90;;;;;;5029400;28;20225;-65
2021/11/07 01:49:11;;;;;;;10.15;8.15;;;1.30;99.90;;;;;;5033502;28;20292;-65
2021/11/07 01:51:46;;;;;;;9.90;7.35;;;1.30;99.90;;;;;;5032055;28;20201;-65
2021/11/07 01:54:21;;;;;;;8.95;7.18;;;1.40;99.90;;;;;;5034450;28;20291;-65
2021/11/07 01:56:48;;;;;;;10.23;7.65;;;1.40;99.90;;;;;;5033782;28;20217;-65
2021/11/07 01:59:15;;;;;;;9.70;7.40;;;1.40;99.90;;;;;;5034601;28;20260;-65
2021/11/07 02:01:42;;;;;;;11.35;8.95;;;1.50;99.90;;;;;;5034233;28;20213;-65
2021/11/07 02:04:09;;;;;;;10.70;7.25;;;1.50;99.90;;;;;;5034059;28;20201;-65
2021/11/07 02:06:36;;;;;;;10.40;7.47;;;1.50;99.90;;;;;;5033285;28;20209;-65
2021/11/07 02:09:04;;;;;;;9.77;7.70;;;1.50;99.90;;;;;;5033398;28;20267;-65
2021/11/07 02:11:31;;;;;;;9.30;6.88;;;1.50;99.90;;;;;;5031058;28;20204;-65
2021/11/07 02:13:58;;;;;;;9.75;7.93;;;1.50;99.90;;;;;;5033539;28;20204;-65
2021/11/07 02:16:25;;;;;;;9.43;8.43;;;1.50;99.90;;;;;;5032916;28;20229;-65
2021/11/07 02:18:52;;;;;;;14.38;9.10;;;1.50;99.90;;;;;;5033889;28;20616;-65
2021/11/07 02:21:21;;;;;;;11.07;7.93;;;1.50;99.90;;;;;;5034046;28;20205;-65
2021/11/07 02:23:47;;;;;;;10.98;8.27;;;1.50;99.90;;;;;;5033922;28;20205;-65
2021/11/07 02:26:15;;;;;;;11.38;8.40;;;1.50;99.90;;;;;;5033567;28;20626;-65
2021/11/07 02:28:44;;;;;;;13.98;8.82;;;1.50;99.90;;;;;;5033720;28;20204;-65
2021/11/07 02:31:14;;;;;;;11.52;7.75;;;1.60;99.90;;;;;;5033756;28;20206;-65
2021/11/07 02:33:41;;;;;;;10.73;7.88;;;1.60;99.90;;;;;;5033393;28;20225;-65
2021/11/07 02:36:11;;;;;;;13.40;9.05;;;1.60;99.90;;;;;;5033147;28;20709;-65
2021/11/07 02:38:41;;;;;;;13.77;8.45;;;1.60;99.90;;;;;;5033623;28;20212;-65
2021/11/07 02:41:09;;;;;;;12.10;9.00;;;1.60;99.90;;;;;;5033976;28;20212;-65
2021/11/07 02:43:45;;;;;;;11.73;7.68;;;1.70;99.90;;;;;;5033720;28;20202;-65
2021/11/07 02:46:16;;;;;;;11.98;9.45;;;1.70;99.90;;;;;;5032651;28;20233;-65
2021/11/07 02:48:43;;;;;;;9.68;7.18;;;1.80;99.90;;;;;;5033545;28;20206;-65
2021/11/07 02:51:10;;;;;;;12.15;7.40;;;1.70;99.90;;;;;;5033164;28;20209;-65
2021/11/07 02:53:39;;;;;;;12.63;10.15;;;1.70;99.90;;;;;;5033431;28;20692;-65
2021/11/07 02:56:07;;;;;;;11.18;7.00;;;1.70;99.90;;;;;;5031004;28;20304;-65
2021/11/07 02:58:34;;;;;;;12.70;9.18;;;1.70;99.90;;;;;;5033282;28;20209;-65
2021/11/07 03:01:00;;;;;;;11.80;8.48;;;1.70;99.90;;;;;;5033058;28;20206;-65
2021/11/07 03:03:28;;;;;;;10.32;8.40;;;1.70;99.90;;;;;;5033109;28;20204;-65
2021/11/07 03:05:55;;;;;;;10.57;8.20;;;1.70;99.90;;;;;;5032401;28;20228;-65
2021/11/07 03:08:22;;;;;;;11.32;8.35;;;1.70;99.90;;;;;;5033072;28;20579;-65
2021/11/07 03:10:51;;;;;;;9.50;8.50;;;1.70;99.90;;;;;;5032873;28;20247;-65
2021/11/07 03:13:19;;;;;;;11.88;7.80;;;1.60;99.90;;;;;;5033236;28;20574;-65
2021/11/07 03:15:46;;;;;;;11.07;8.07;;;1.60;99.90;;;;;;5032138;28;20226;-65
2021/11/07 03:18:14;;;;;;;12.55;9.10;;;1.60;99.90;;;;;;5033228;28;20209;-65
2021/11/07 03:20:41;;;;;;;11.15;8.52;;;1.60;99.90;;;;;;5032787;28;20201;-65
2021/11/07 03:23:09;;;;;;;12.15;8.85;;;1.60;99.90;;;;;;5032794;28;20201;-65
2021/11/07 03:25:45;;;;;;;10.60;8.32;;;1.60;99.90;;;;;;5032783;28;20222;-65
2021/11/07 03:28:14;;;;;;;10.27;7.70;;;1.60;99.90;;;;;;5032755;28;20209;-65
2021/11/07 03:30:47;;;;;;;11.75;8.00;;;1.60;99.90;;;;;;5032650;28;20233;-65
2021/11/07 03:33:21;;;;;;;10.10;7.70;;;1.60;99.90;;;;;;5032213;28;20689;-65
2021/11/07 03:35:48;;;;;;;13.20;8.93;;;1.70;99.90;;;;;;5032031;28;20256;-65
2021/11/07 03:38:16;;;;;;;10.50;8.05;;;1.70;99.90;;;;;;5032629;28;20202;-65
2021/11/07 03:40:42;;;;;;;8.88;7.68;;;1.70;99.90;;;;;;5032580;28;20197;-65
2021/11/07 03:43:09;;;;;;;8.88;7.80;;;1.70;99.90;;;;;;5032414;28;20209;-65
2021/11/07 03:45:38;;;;;;;11.38;7.88;;;1.70;99.90;;;;;;5031889;28;20228;-65
2021/11/07 03:48:06;;;;;;;12.65;8.18;;;1.70;99.90;;;;;;5031863;28;20202;-65
2021/11/07 03:50:33;;;;;;;8.65;7.45;;;1.70;99.90;;;;;;5032537;28;20291;-65
2021/11/07 03:53:00;;;;;;;10.52;8.20;;;1.80;99.90;;;;;;5032044;28;20276;-65
2021/11/07 03:55:27;;;;;;;14.18;8.35;;;1.80;99.90;;;;;;5030787;28;20204;-65
2021/11/07 03:57:54;;;;;;;11.43;8.50;;;1.80;99.90;;;;;;5031400;28;20209;-65
2021/11/07 04:00:23;;;;;;;8.32;7.38;;;1.80;99.90;;;;;;5032315;28;20629;-65
2021/11/07 04:02:52;;;;;;;10.68;7.95;;;1.80;99.90;;;;;;5032007;28;20206;-65
2021/11/07 04:05:19;;;;;;;9.25;7.78;;;1.80;99.90;;;;;;5032102;28;20229;-65
2021/11/07 04:07:46;;;;;;;11.35;8.55;;;1.80;99.90;;;;;;5030443;28;20253;-65
2021/11/07 04:10:14;;;;;;;12.05;8.38;;;1.70;99.90;;;;;;5031868;28;20213;-65
2021/11/07 04:12:41;;;;;;;10.60;8.20;;;1.70;99.90;;;;;;5031921;28;20546;-65
2021/11/07 04:15:09;;;;;;;10.48;7.97;;;1.80;99.90;;;;;;5031596;28;20204;-65
2021/11/07 04:17:37;;;;;;;12.10;9.38;;;1.70;99.90;;;;;;5031230;28;20249;-65
2021/11/07 04:20:07;;;;;;;11.98;8.10;;;1.70;99.90;;;;;;5030486;28;20216;-65
2021/11/07 04:22:34;;;;;;;10.90;7.85;;;1.70;99.90;;;;;;5031396;28;20210;-65
2021/11/07 04:25:00;;;;;;;11.35;8.82;;;1.70;99.90;;;;;;5031704;28;20217;-65
2021/11/07 04:27:27;;;;;;;11.25;8.73;;;1.80;99.90;;;;;;5030874;28;20217;-65
2021/11/07 04:29:54;;;;;;;10.43;7.18;;;1.70;99.90;;;;;;5031609;28;20210;-65
2021/11/07 04:34:49;;;;;;;10.63;8.00;;;1.80;99.90;;;;;;5047826;28;20244;-70
2021/11/07 04:37:18;;;;;;;12.20;8.82;;;1.80;99.90;;;;;;5063332;28;20604;-70
2021/11/07 04:39:46;;;;;;;12.98;8.90;;;1.90;99.90;;;;;;5070115;28;20236;-70
2021/11/07 04:42:13;;;;;;;9.27;8.07;;;1.90;99.90;;;;;;5070985;28;20208;-69
2021/11/07 04:44:39;;;;;;;9.90;8.15;;;1.90;99.90;;;;;;5070538;28;20581;-70
2021/11/07 04:47:07;;;;;;;10.93;7.45;;;1.80;99.90;;;;;;5070251;28;20239;-70
2021/11/07 04:49:33;;;;;;;10.85;7.82;;;1.80;99.90;;;;;;5070765;28;20208;-70
2021/11/07 04:52:00;;;;;;;10.52;7.65;;;1.80;99.90;;;;;;5070652;28;20211;-70
2021/11/07 04:54:30;;;;;;;10.25;7.90;;;1.70;99.90;;;;;;5070586;28;20676;-70
2021/11/07 04:56:57;;;;;;;9.73;7.68;;;1.80;99.90;;;;;;5069966;28;20227;-70
2021/11/07 04:59:24;;;;;;;8.95;6.70;;;1.80;99.90;;;;;;5070657;28;20204;-70
2021/11/07 05:01:51;;;;;;;11.25;8.25;;;1.80;99.90;;;;;;5070596;28;20204;-70
2021/11/07 05:04:19;;;;;;;10.10;8.02;;;1.80;99.90;;;;;;5070249;28;20668;-70
2021/11/07 05:06:49;;;;;;;9.50;6.90;;;1.80;99.90;;;;;;5069702;28;20228;-70
2021/11/07 05:09:16;;;;;;;10.48;7.28;;;1.80;99.90;;;;;;5070323;28;20683;-69
2021/11/07 05:11:44;;;;;;;9.77;7.13;;;1.80;99.90;;;;;;5070412;28;20200;-69
2021/11/07 05:14:11;;;;;;;9.00;7.30;;;1.80;99.90;;;;;;5070338;28;20200;-70
2021/11/07 05:16:38;;;;;;;10.80;7.82;;;1.80;99.90;;;;;;5069402;28;20224;-70
2021/11/07 05:19:05;;;;;;;10.25;7.43;;;1.80;99.90;;;;;;5070362;28;20228;-69
2021/11/07 05:21:32;;;;;;;10.63;6.70;;;1.80;99.90;;;;;;5070215;28;20271;-70
2021/11/07 05:23:58;;;;;;;10.75;8.30;;;1.80;99.90;;;;;;5070512;28;20691;-70
2021/11/07 05:26:25;;;;;;;10.10;7.90;;;1.80;99.90;;;;;;5069830;28;20703;-69
2021/11/07 05:28:54;;;;;;;10.63;6.93;;;1.80;99.90;;;;;;5070530;28;20204;-70
2021/11/07 05:31:20;;;;;;;11.48;8.15;;;1.80;99.90;;;;;;5070600;28;20207;-70
2021/11/07 05:33:47;;;;;;;12.13;7.47;;;1.70;99.90;;;;;;5070074;28;20594;-69
2021/11/07 05:36:14;;;;;;;10.40;7.35;;;1.70;99.90;;;;;;5069961;28;20574;-68
2021/11/07 05:38:41;;;;;;;10.40;7.72;;;1.60;99.90;;;;;;5070302;28;20204;-70
2021/11/07 05:41:08;;;;;;;11.38;7.93;;;1.60;99.90;;;;;;5070353;28;20706;-70
2021/11/07 05:43:35;;;;;;;13.40;8.27;;;1.50;99.90;;;;;;5070253;28;20695;-69
2021/11/07 05:46:03;;;;;;;11.60;7.68;;;1.50;99.90;;;;;;5069483;28;20719;-70
2021/11/07 05:48:30;;;;;;;9.65;7.47;;;1.50;99.90;;;;;;5070507;28;20196;-69
2021/11/07 05:50:57;;;;;;;8.93;7.05;;;1.50;99.90;;;;;;5070458;28;20196;-69
2021/11/07 05:53:24;;;;;;;11.75;7.72;;;1.50;99.90;;;;;;5070467;28;20208;-69
2021/11/07 05:55:52;;;;;;;11.35;8.15;;;1.50;99.90;;;;;;5069733;28;20224;-70
2021/11/07 05:58:19;;;;;;;10.43;7.63;;;1.50;99.90;;;;;;5070286;28;20274;-69
2021/11/07 06:00:47;;;;;;;14.65;9.00;;;1.50;99.90;;;;;;5070315;28;20200;-68
2021/11/07 06:03:15;;;;;;;11.55;7.78;;;1.50;99.90;;;;;;5070168;28;20224;-69
2021/11/07 06:05:42;;;;;;;10.27;7.50;;;1.60;99.90;;;;;;5069784;28;20216;-69
2021/11/07 06:08:09;;;;;;;9.57;7.65;;;1.50;99.90;;;;;;5070325;28;20295;-70
2021/11/07 06:10:36;;;;;;;11.68;8.35;;;1.50;99.90;;;;;;5070047;28;20208;-70
2021/11/07 06:13:03;;;;;;;12.75;8.18;;;1.50;99.90;;;;;;5070313;28;20200;-69
2021/11/07 06:15:30;;;;;;;11.40;7.53;;;1.50;99.90;;;;;;5069801;28;20200;-70
2021/11/07 06:17:57;;;;;;;11.52;8.20;;;1.50;99.90;;;;;;5069901;28;20203;-69
2021/11/07 06:20:25;;;;;;;11.32;8.55;;;1.50;99.90;;;;;;5070264;28;20211;-69
2021/11/07 06:22:52;;;;;;;14.68;10.30;;;1.50;99.90;;;;;;5070135;28;20568;-70
2021/11/07 06:25:19;;;;;;;13.20;9.07;;;1.40;99.90;;;;;;5070004;28;20200;-70
2021/11/07 06:27:45;;;;;;;15.35;10.50;;;1.40;99.90;;;;;;5069190;28;20232;-70
2021/11/07 06:30:12;;;;;;;13.15;9.35;;;1.40;99.90;;;;;;5071310;28;20223;-71
2021/11/07 06:32:39;;;;;;;14.77;10.05;;;1.40;99.90;;;;;;5073605;28;20690;-71
2021/11/07 06:35:08;;;;;;;16.45;10.57;;;1.50;99.90;;;;;;5073913;28;20228;-71
2021/11/07 06:37:36;;;;;;;12.75;9.43;;;1.50;99.90;;;;;;5073298;28;20584;-69
2021/11/07 06:40:05;;;;;;;13.43;9.10;;;1.50;99.90;;;;;;5073532;28;20204;-71
2021/11/07 06:42:31;;;;;;;15.48;10.10;;;1.60;99.90;;;;;;5074145;28;20208;-71
2021/11/07 06:44:58;;;;;;;14.50;10.05;;;1.60;99.90;;;;;;5073607;28;20200;-71
2021/11/07 06:47:25;;;;;;;13.63;9.88;;;1.60;99.90;;;;;;5072958;28;20230;-71
2021/11/07 06:49:53;;;;;;;15.30;10.35;;;1.60;99.90;;;;;;5073483;28;20223;-71
2021/11/07 06:52:20;;;;;;;16.23;10.52;;;1.60;99.90;;;;;;5073369;28;20331;-71
2021/11/07 06:54:48;;;;;;;14.10;10.02;;;1.70;99.90;;;;;;5073223;28;20211;-71
2021/11/07 06:57:15;;;;;;;19.17;11.40;;;1.70;99.90;;;;;;5072690;28;20216;-71
2021/11/07 06:59:42;;;;;;;16.95;10.70;;;1.70;99.90;;;;;;5073376;28;20549;-71
2021/11/07 07:02:09;;;;;;;14.10;9.70;;;1.80;99.90;;;;;;5073404;28;20299;-70
2021/11/07 07:04:36;;;;;;;17.23;11.30;;;1.80;99.90;;;;;;5072941;28;20686;-71
2021/11/07 07:07:03;;;;;;;14.85;10.40;;;1.90;99.90;;;;;;5072630;28;20220;-71
2021/11/07 07:09:32;;;;;;;20.02;10.85;;;1.90;99.90;;;;;;5072847;28;20226;-71
2021/11/07 07:12:07;;;;;;;13.68;9.48;;;2.00;99.90;;;;;;5073144;28;20204;-71
2021/11/07 07:14:37;;;;;;;13.88;11.48;;;2.00;99.90;;;;;;5072771;28;20239;-71
2021/11/07 07:17:17;;;;;;;16.50;10.25;;;2.00;99.90;;;;;;5072513;28;20698;-70
2021/11/07 07:20:03;;;;;;;16.52;11.30;;;2.10;99.90;;;;;;5072807;28;20264;-71
2021/11/07 07:28:14;;;;;;;16.23;11.07;;;2.40;99.90;;;;;;5072155;28;20277;-70
2021/11/07 07:30:50;;;;;;;14.82;10.65;;;2.70;99.90;;;;;;5072728;28;20196;-70
2021/11/07 07:33:28;;;;;;;14.02;10.48;;;3.10;99.90;;;;;;5072396;28;20210;-69
2021/11/07 07:35:56;;;;;;;14.32;10.32;;;3.60;99.90;;;;;;5072071;28;20228;-70
2021/11/07 07:38:24;;;;;;;13.48;9.73;;;3.90;99.90;;;;;;5072504;28;20232;-70
2021/11/07 07:40:51;;;;;;;13.40;9.93;;;4.10;99.90;;;;;;5071995;28;20235;-70
2021/11/07 07:43:19;;;;;;;11.95;9.73;;;4.20;99.90;;;;;;5071801;28;20208;-70
2021/11/07 07:45:46;;;;;;;13.43;9.05;;;4.10;99.90;;;;;;5071815;28;20228;-69
2021/11/07 07:48:13;;;;;;;11.95;8.82;;;4.00;99.90;;;;;;5073004;28;20675;-70
2021/11/07 07:50:41;;;;;;;13.05;9.65;;;4.00;99.90;;;;;;5072532;28;20278;-69
2021/11/07 07:53:08;;;;;;;12.88;8.68;;;4.10;99.90;;;;;;5072677;28;20299;-70
2021/11/07 07:55:35;;;;;;;12.70;8.70;;;4.20;99.90;;;;;;5072347;28;20208;-69
2021/11/07 07:58:03;;;;;;;12.60;8.80;;;4.40;99.90;;;;;;5072369;28;20197;-70
2021/11/07 08:00:31;;;;;;;12.57;9.40;;;4.60;99.90;;;;;;5072379;28;20211;-69
2021/11/07 08:02:58;;;;;;;13.60;9.18;;;4.80;99.90;;;;;;5072088;28;20613;-70
2021/11/07 08:05:24;;;;;;;10.13;8.35;;;5.00;99.90;;;;;;5072329;28;20262;-70
2021/11/07 08:07:51;;;;;;;10.98;8.55;;;4.90;99.90;;;;;;5071384;28;20224;-69
2021/11/07 08:10:18;;;;;;;12.05;8.70;;;4.80;99.90;;;;;;5072436;28;20211;-69
2021/11/07 08:12:45;;;;;;;11.50;8.45;;;4.60;99.90;;;;;;5071913;28;20205;-70
2021/11/07 08:15:13;;;;;;;13.05;9.38;;;4.30;99.90;;;;;;5071877;28;20197;-70
2021/11/07 08:17:42;;;;;;;11.18;8.95;;;4.10;99.90;;;;;;5059878;28;20306;-71
2021/11/07 08:20:12;;;;;;;10.40;8.65;;;4.10;99.90;;;;;;5038427;28;20202;-71
2021/11/07 08:22:41;;;;;;;12.10;9.85;;;3.90;99.90;;;;;;5031454;28;20198;-70
2021/11/07 08:25:11;;;;;;;13.40;9.88;;;3.80;99.90;;;;;;5031423;28;20248;-72
2021/11/07 08:27:40;;;;;;;13.38;9.57;;;3.80;99.90;;;;;;5030843;28;20321;-71
2021/11/07 08:30:08;;;;;;;14.10;9.48;;;3.70;99.90;;;;;;5031651;28;20641;-70
2021/11/07 08:32:34;;;;;;;13.85;9.68;;;3.70;99.90;;;;;;5039607;28;20208;-72
2021/11/07 08:35:04;;;;;;;13.90;9.48;;;3.60;99.90;;;;;;5040756;28;20202;-70
2021/11/07 08:37:35;;;;;;;11.82;8.88;;;3.60;99.90;;;;;;5030702;28;20623;-71
2021/11/07 08:40:05;;;;;;;12.25;9.25;;;3.60;99.90;;;;;;5028158;28;20298;-71
2021/11/07 08:42:35;;;;;;;13.73;9.68;;;3.60;99.90;;;;;;5032875;28;20218;-69
2021/11/07 09:01:43;;;;;;;12.40;8.25;;;3.70;99.90;;;;;;5029388;28;20252;-69
2021/11/07 09:04:23;;;;;;;12.85;8.65;;;3.70;99.90;;;;;;5028809;28;20228;-69
2021/11/07 09:09:41;;;;;;;10.85;7.45;;;3.80;99.90;;;;;;5027483;28;20194;-70
2021/11/07 09:12:09;;;;;;;10.70;7.85;;;3.90;99.90;;;;;;5028949;28;20588;-70
2021/11/07 09:14:38;;;;;;;13.38;7.88;;;4.00;99.90;;;;;;5029090;28;20259;-70
2021/11/07 09:17:08;;;;;;;11.02;8.00;;;4.10;99.90;;;;;;5028097;28;20244;-70
2021/11/07 09:19:36;;;;;;;10.90;7.40;;;4.30;99.90;;;;;;5028357;28;20271;-71
2021/11/07 09:22:09;;;;;;;11.50;7.38;;;4.70;99.90;;;;;;5029059;28;20206;-71
2021/11/07 09:24:39;;;;;;;8.32;6.65;;;5.50;99.90;;;;;;5028288;28;20201;-71
2021/11/07 09:27:12;;;;;;;7.13;5.88;;;6.70;99.90;;;;;;5029017;28;20629;-72
2021/11/07 09:29:47;;;;;;;7.90;6.07;;;8.00;99.90;;;;;;5029083;28;20209;-70
2021/11/07 09:32:25;;;;;;;8.07;5.88;;;8.80;99.90;;;;;;5029134;28;20213;-71
2021/11/07 09:34:56;;;;;;;7.00;5.32;;;9.50;99.90;;;;;;5029162;28;20217;-71
2021/11/07 09:37:30;;;;;;;7.13;5.47;;;10.10;99.90;;;;;;5029106;28;20233;-71
2021/11/07 09:39:59;;;;;;;6.95;5.43;;;10.40;99.90;;;;;;5028781;28;20301;-71
2021/11/07 09:42:34;;;;;;;6.07;5.47;;;10.00;99.90;;;;;;5028979;28;20209;-70
2021/11/07 09:45:09;;;;;;;5.70;4.80;;;9.40;99.90;;;;;;5042753;28;20211;-70
2021/11/07 09:47:39;;;;;;;5.50;4.40;;;8.80;99.90;;;;;;5035757;28;20232;-69
2021/11/07 09:50:11;;;;;;;6.47;4.75;;;8.40;99.90;;;;;;5028988;28;20202;-69
2021/11/07 09:52:44;;;;;;;6.38;5.53;;;7.90;99.90;;;;;;5029238;28;20202;-69
2021/11/07 09:55:12;;;;;;;5.90;5.05;;;7.60;99.90;;;;;;5029301;28;20248;-69
2021/11/07 09:57:38;;;;;;;6.05;4.60;;;7.40;99.90;;;;;;5028625;28;20226;-71
2021/11/07 10:00:09;;;;;;;5.68;4.65;;;7.30;99.90;;;;;;5029238;28;20681;-71
2021/11/07 10:02:36;;;;;;;5.40;4.63;;;7.30;99.90;;;;;;5028942;28;20297;-70
2021/11/07 10:05:04;;;;;;;6.95;5.15;;;7.30;99.90;;;;;;5031707;28;20673;-70
2021/11/07 10:07:34;;;;;;;4.88;4.10;;;7.30;99.90;;;;;;5032673;28;20236;-69
2021/11/07 10:10:12;;;;;;;4.18;3.17;;;7.40;99.90;;;;;;5032466;28;20259;-69
2021/11/07 10:12:41;;;;;;;4.63;3.83;;;7.50;99.90;;;;;;5039516;28;20210;-70
2021/11/07 10:15:11;;;;;;;3.45;3.15;;;7.60;99.90;;;;;;5052548;28;20229;-69
2021/11/07 10:17:43;;;;;;;4.50;3.30;;;7.70;99.90;;;;;;5031636;28;20221;-69
2021/11/07 10:20:22;;;;;;;3.47;2.53;;;7.80;99.90;;;;;;5033111;28;20202;-70
2021/11/07 10:22:55;;;;;;;2.78;2.30;;;8.00;99.90;;;;;;5032081;28;20219;-69
2021/11/07 10:25:30;;;;;;;3.97;2.38;;;8.40;99.90;;;;;;5047232;28;20198;-70
2021/11/07 10:27:58;;;;;;;3.97;3.15;;;8.80;99.90;;;;;;5032080;28;20221;-70
2021/11/07 10:30:26;;;;;;;4.68;2.20;;;9.50;99.90;;;;;;5036928;28;20607;-70
2021/11/07 10:33:08;;;;;;;2.85;2.58;;;10.70;99.90;;;;;;5052525;28;20335;-71
2021/11/07 10:36:18;;;;;;;2.33;2.10;;;12.50;99.90;;;;;;5051873;28;20673;-71
2021/11/07 10:38:54;;;;;;;2.30;2.10;;;14.20;99.90;;;;;;5047350;28;20189;-71
2021/11/07 10:44:30;;;;;;;2.60;2.40;;;13.20;99.90;;;;;;5089536;22;20204;-66
2021/11/07 10:47:11;;;;;;;2.60;2.35;;;12.00;99.90;;;;;;5008806;28;20241;-69
2021/11/07 10:52:29;;;;;;;2.05;1.85;;;12.70;99.90;;;;;;5013176;28;20309;-69
2021/11/07 10:54:58;;;;;;;2.55;2.35;;;14.10;99.90;;;;;;5009714;28;20215;-68
2021/11/07 10:57:29;;;;;;;3.37;2.73;;;14.30;99.90;;;;;;4991845;28;20223;-68
2021/11/07 11:00:24;;;;;;;2.40;2.20;;;14.20;99.90;;;;;;4979845;28;20800;-68
2021/11/07 11:02:53;;;;;;;2.40;2.20;;;13.70;99.90;;;;;;4982694;28;20198;-68
2021/11/07 11:05:24;;;;;;;2.45;2.25;;;13.10;99.90;;;;;;5012951;28;20574;-68
2021/11/07 11:08:01;;;;;;;2.50;2.30;;;12.40;99.90;;;;;;5013376;28;20269;-68
2021/11/07 11:10:34;;;;;;;2.47;2.28;;;11.80;99.90;;;;;;5012772;28;20202;-68
2021/11/07 11:13:07;;;;;;;2.60;2.15;;;11.30;99.90;;;;;;5008739;28;20195;-68
2021/11/07 11:15:41;;;;;;;3.92;2.47;;;11.10;99.90;;;;;;5012084;28;20213;-68
2021/11/07 11:18:24;;;;;;;2.50;2.00;;;11.00;99.90;;;;;;5012594;28;20671;-68
2021/11/07 11:21:17;;;;;;;2.00;1.80;;;11.00;99.90;;;;;;5012517;28;20202;-68
2021/11/07 11:23:55;;;;;;;2.05;1.90;;;10.90;99.90;;;;;;5008154;28;20210;-68
2021/11/07 11:26:38;;;;;;;2.15;1.80;;;10.70;99.90;;;;;;5008322;28;20300;-68
2021/11/07 11:29:20;;;;;;;1.90;1.70;;;10.60;99.90;;;;;;5011625;28;20244;-68
2021/11/07 11:31:54;;;;;;;2.10;1.63;;;10.50;99.90;;;;;;5012245;28;20207;-68
2021/11/07 11:34:24;;;;;;;1.80;1.70;;;10.40;99.90;;;;;;5012061;28;20206;-68
2021/11/07 11:36:56;;;;;;;1.77;1.52;;;10.40;99.90;;;;;;5011251;28;20292;-68
2021/11/07 11:39:30;;;;;;;1.50;1.30;;;10.30;99.90;;;;;;5011998;28;20207;-68
2021/11/07 11:42:01;;;;;;;1.63;1.33;;;10.30;99.90;;;;;;5012107;28;20298;-68
2021/11/07 11:44:30;;;;;;;2.10;1.30;;;10.30;99.90;;;;;;5006639;28;20253;-68
2021/11/07 11:47:26;;;;;;;2.08;1.60;;;10.20;99.90;;;;;;5008737;28;20280;-68
2021/11/07 11:50:12;;;;;;;1.73;1.20;;;10.10;99.90;;;;;;5011403;28;20701;-68
2021/11/07 11:55:29;;;;;;;1.13;1.02;;;10.10;99.90;;;;;;5010082;28;20910;-68
2021/11/07 11:58:11;;;;;;;1.30;1.20;;;10.20;99.90;;;;;;5010689;28;20202;-68
2021/11/07 12:00:47;;;;;;;1.75;1.42;;;10.40;99.90;;;;;;5010837;28;20297;-68
2021/11/07 12:03:36;;;;;;;1.45;1.00;;;10.60;99.90;;;;;;5010980;28;20681;-66
2021/11/07 12:06:21;;;;;;;1.77;1.65;;;10.70;99.90;;;;;;5010571;28;20277;-68
2021/11/07 12:08:58;;;;;;;1.40;1.25;;;10.80;99.90;;;;;;4971965;28;20249;-68
2021/11/07 12:11:31;;;;;;;2.40;1.52;;;10.90;99.90;;;;;;4971765;28;20298;-68
2021/11/07 12:14:09;;;;;;;1.50;1.40;;;11.10;99.90;;;;;;4973604;28;20211;-68
2021/11/07 12:16:56;;;;;;;1.30;1.10;;;11.40;99.90;;;;;;4990391;28;20594;-68
2021/11/07 12:19:31;;;;;;;2.20;1.23;;;12.30;99.90;;;;;;4991537;28;20210;-68
2021/11/07 12:22:02;;;;;;;1.55;1.27;;;12.40;99.90;;;;;;4991102;28;20203;-68
2021/11/07 12:24:32;;;;;;;1.48;1.38;;;12.20;99.90;;;;;;4990966;28;20207;-68
2021/11/07 12:27:21;;;;;;;1.85;1.38;;;12.40;99.90;;;;;;4990710;28;20263;-68
2021/11/07 12:29:49;;;;;;;1.75;1.20;;;12.70;99.90;;;;;;4990866;28;20305;-67
2021/11/07 12:32:17;;;;;;;3.15;1.63;;;13.00;99.90;;;;;;4991266;28;20214;-68
2021/11/07 12:34:57;;;;;;;1.50;1.13;;;13.40;99.90;;;;;;4991238;28;20207;-68
2021/11/07 12:40:39;;;;;;;1.20;1.00;;;14.00;99.90;;;;;;4990793;28;20264;-68
2021/11/07 12:43:09;;;;;;;3.70;1.27;;;14.30;99.90;;;;;;4990354;28;20207;-68
2021/11/07 12:45:39;;;;;;;1.80;1.33;;;14.20;99.90;;;;;;4990459;28;20215;-68
2021/11/07 12:48:09;;;;;;;2.55;1.33;;;14.10;99.90;;;;;;4990574;28;20490;-68
2021/11/07 12:50:55;;;;;;;2.27;1.50;;;13.60;99.90;;;;;;4990197;28;20199;-68
2021/11/07 12:53:22;;;;;;;1.50;1.27;;;13.30;99.90;;;;;;4990786;28;20557;-68
2021/11/07 12:55:49;;;;;;;1.20;1.00;;;12.80;99.90;;;;;;4990237;28;20552;-68
2021/11/07 12:58:17;;;;;;;2.08;1.33;;;12.40;99.90;;;;;;4990933;28;20199;-68
2021/11/07 13:00:44;;;;;;;1.30;1.20;;;12.10;99.90;;;;;;4990502;28;20273;-68
2021/11/07 13:03:14;;;;;;;1.52;1.40;;;11.90;99.90;;;;;;4991614;28;20203;-68
2021/11/07 13:05:43;;;;;;;1.70;1.23;;;12.00;99.90;;;;;;4991664;28;20577;-68
2021/11/07 13:08:18;;;;;;;1.20;1.10;;;12.20;99.90;;;;;;4991397;28;20227;-68
2021/11/07 13:10:51;;;;;;;1.42;1.10;;;12.20;99.90;;;;;;4991531;28;20639;-68
2021/11/07 13:13:24;;;;;;;2.38;1.35;;;12.20;99.90;;;;;;4992752;28;20203;-68
2021/11/07 13:16:02;;;;;;;1.08;0.90;;;12.10;99.90;;;;;;4991770;28;20230;-68
2021/11/07 13:21:37;;;;;;;1.80;1.50;;;11.70;99.90;;;;;;4988695;28;20559;-68
2021/11/07 13:27:02;;;;;;;1.52;1.13;;;11.40;99.90;;;;;;4990296;28;20221;-68
2021/11/07 13:29:37;;;;;;;1.35;1.25;;;11.10;99.90;;;;;;4988120;28;20593;-68
2021/11/07 13:35:07;;;;;;;2.28;1.35;;;10.80;99.90;;;;;;4978035;28;20191;-68
2021/11/07 13:37:39;;;;;;;2.35;1.10;;;10.70;99.90;;;;;;4969504;28;20234;-68
2021/11/07 13:40:15;;;;;;;2.20;1.60;;;10.60;99.90;;;;;;4971284;28;20238;-68
2021/11/07 13:42:44;;;;;;;2.75;1.20;;;10.60;99.90;;;;;;4970289;28;20203;-68
2021/11/07 13:45:21;;;;;;;1.77;1.48;;;10.60;99.90;;;;;;4969801;28;20222;-68
2021/11/07 13:47:49;;;;;;;2.00;1.25;;;10.50;99.90;;;;;;4969914;28;20235;-68
2021/11/07 13:50:20;;;;;;;1.30;1.02;;;10.40;99.90;;;;;;4986987;28;20255;-68
2021/11/07 13:52:51;;;;;;;1.70;1.17;;;10.40;99.90;;;;;;4990113;28;20199;-68
2021/11/07 13:55:20;;;;;;;1.40;1.30;;;10.40;99.90;;;;;;4989697;28;20203;-68
2021/11/07 13:57:47;;;;;;;1.30;1.20;;;10.30;99.90;;;;;;4989106;28;20238;-68
2021/11/07 14:00:19;;;;;;;2.05;1.85;;;10.30;99.90;;;;;;4970553;28;20204;-68